KHHW

Stan Stamper Municipal Airport

Hugo, Oklahoma, USA
METAR KHHW 230955Z AUTO 00000KT 10SM SCT120 10/08 A3020 RMK AO2 T00980083
Observed Flight Rules
Oct-23 @ 09:55 UTC (22 minutes ago) Visual Flight Rules
Visibility Clouds
10 miles
  • Scattered at 12,000' AGL
Temperatures Readings
Current 10°C / 50°F
Dewpoint 8°C / 46°F
Humidity 88%
Altimeter 30.2" Hg
Pressure 1023 hPa
Elevation 144
METAR KHHW 230955Z AUTO 00000KT 10SM SCT120 10/08 A3020 RMK AO2 T00980083
Observed Flight Rules
Oct-23 @ 09:55 UTC
(22 minutes ago)
VFR
Clouds
  • Scattered at 12,000' AGL
Temperature Dewpoint
10°C / 50°F 8°C / 46°F
Humidity Altimeter Pressure
88% 30.2" Hg 1023 hPa